createdAt,value
2019-05-17T00:02:26.594Z,3.40
2019-05-17T00:04:56.382Z,3.30
2019-05-17T00:07:27.204Z,3.00
2019-05-17T00:09:57.117Z,3.00
2019-05-17T00:12:27.151Z,2.95
2019-05-17T00:14:56.374Z,2.67
2019-05-17T00:17:26.770Z,2.92
2019-05-17T00:19:56.798Z,2.92
2019-05-17T00:22:27.006Z,3.20
2019-05-17T00:24:56.821Z,3.60
2019-05-17T00:27:26.469Z,3.30
2019-05-17T00:29:57.079Z,2.90
2019-05-17T00:32:27.462Z,3.10
2019-05-17T00:34:56.468Z,2.70
2019-05-17T00:37:26.442Z,3.30
2019-05-17T00:39:56.663Z,3.10
2019-05-17T00:42:26.453Z,3.05
2019-05-17T00:44:56.548Z,3.10
2019-05-17T00:47:26.590Z,3.22
2019-05-17T00:49:57.016Z,3.20
2019-05-17T00:52:27.263Z,2.75
2019-05-17T00:54:56.373Z,2.80
2019-05-17T00:57:27.209Z,2.90
2019-05-17T00:59:56.574Z,2.70
2019-05-17T01:02:27.015Z,2.90
2019-05-17T01:04:56.872Z,2.83
2019-05-17T01:07:26.867Z,3.12
2019-05-17T01:09:56.612Z,2.95
2019-05-17T01:12:27.229Z,2.75
2019-05-17T01:14:58.131Z,3.00
2019-05-17T01:17:27.093Z,3.00
2019-05-17T01:19:57.381Z,2.87
2019-05-17T01:22:26.384Z,3.10
2019-05-17T01:24:56.960Z,2.80
2019-05-17T01:27:26.380Z,2.95
2019-05-17T01:29:57.202Z,3.10
2019-05-17T01:32:26.631Z,3.10
2019-05-17T01:34:56.498Z,2.87
2019-05-17T01:37:27.526Z,3.15
2019-05-17T01:39:57.366Z,3.45
2019-05-17T01:42:26.565Z,2.92
2019-05-17T01:44:56.768Z,3.02
2019-05-17T01:47:27.243Z,3.20
2019-05-17T01:49:57.631Z,3.17
2019-05-17T01:52:27.328Z,3.15
2019-05-17T01:54:57.095Z,2.70
2019-05-17T01:57:27.406Z,2.87
2019-05-17T01:59:57.144Z,3.00
2019-05-17T02:02:30.327Z,3.05
2019-05-17T02:04:59.153Z,3.00
2019-05-17T02:07:27.970Z,2.75
2019-05-17T02:09:56.972Z,2.85
2019-05-17T02:12:26.721Z,3.15
2019-05-17T02:14:57.536Z,3.15
2019-05-17T02:17:26.546Z,3.17
2019-05-17T02:19:57.336Z,2.80
2019-05-17T02:22:27.214Z,3.25
2019-05-17T02:24:56.794Z,2.75
2019-05-17T02:27:31.629Z,3.00
2019-05-17T02:29:56.630Z,3.20
2019-05-17T02:32:25.748Z,3.33
2019-05-17T02:34:54.568Z,3.17
2019-05-17T02:37:23.391Z,3.58
2019-05-17T02:40:02.162Z,2.72
2019-05-17T02:42:22.671Z,2.72
2019-05-17T02:44:53.144Z,2.80
2019-05-17T02:47:23.098Z,2.90
2019-05-17T02:49:52.514Z,3.10
2019-05-17T02:52:22.942Z,2.98
2019-05-17T02:54:52.716Z,3.05
2019-05-17T02:57:23.274Z,3.12
2019-05-17T02:59:52.667Z,2.83
2019-05-17T03:02:27.046Z,2.87
2019-05-17T03:04:52.650Z,3.02
2019-05-17T03:07:23.207Z,2.80
2019-05-17T03:09:54.962Z,2.80
2019-05-17T03:12:23.657Z,3.10
2019-05-17T03:14:52.948Z,2.72
2019-05-17T03:17:22.924Z,2.75
2019-05-17T03:19:53.018Z,2.87
2019-05-17T03:22:23.069Z,2.92
2019-05-17T03:24:53.344Z,2.72
2019-05-17T03:27:23.343Z,2.92
2019-05-17T03:29:53.683Z,3.25
2019-05-17T03:32:26.549Z,3.00
2019-05-17T03:34:56.145Z,2.98
2019-05-17T03:37:30.260Z,2.85
2019-05-17T03:39:54.526Z,2.72
2019-05-17T03:42:23.347Z,2.95
2019-05-17T03:44:53.121Z,3.05
2019-05-17T03:47:22.681Z,3.00
2019-05-17T03:49:53.126Z,2.77
2019-05-17T03:52:22.415Z,3.42
2019-05-17T03:54:53.095Z,2.67
2019-05-17T03:57:23.955Z,2.70
2019-05-17T03:59:52.557Z,2.77
2019-05-17T04:02:23.011Z,2.90
2019-05-17T04:04:52.997Z,2.90
2019-05-17T04:07:23.551Z,2.67
2019-05-17T04:09:53.390Z,3.25
2019-05-17T04:12:23.177Z,3.05
2019-05-17T04:14:53.359Z,3.05
2019-05-17T04:17:22.905Z,2.87
2019-05-17T04:19:53.367Z,2.92
2019-05-17T04:22:23.884Z,3.10
2019-05-17T04:24:52.844Z,2.83
2019-05-17T04:27:22.996Z,2.80
2019-05-17T04:29:53.308Z,3.02
2019-05-17T04:32:23.377Z,2.90
2019-05-17T04:34:52.669Z,3.05
2019-05-17T04:37:22.815Z,3.33
2019-05-17T04:39:52.612Z,2.70
2019-05-17T04:42:22.731Z,2.55
2019-05-17T04:44:52.698Z,3.12
2019-05-17T04:47:22.946Z,3.05
2019-05-17T04:49:53.636Z,4.35
2019-05-17T04:52:22.960Z,4.85
2019-05-17T04:54:53.767Z,5.10
2019-05-17T04:57:23.249Z,4.50
2019-05-17T04:59:52.441Z,4.08
2019-05-17T05:02:23.622Z,4.17
2019-05-17T05:04:53.325Z,4.65
2019-05-17T05:07:22.598Z,4.33
2019-05-17T05:09:52.458Z,4.85
2019-05-17T05:12:22.810Z,4.50
2019-05-17T05:14:52.341Z,4.90
2019-05-17T05:17:22.158Z,4.83
2019-05-17T05:19:53.046Z,5.05
2019-05-17T05:22:22.492Z,4.92
2019-05-17T05:24:52.525Z,5.33
2019-05-17T05:27:22.298Z,5.33
2019-05-17T05:29:52.180Z,5.35
2019-05-17T05:32:22.073Z,6.25
2019-05-17T05:34:51.994Z,6.67
2019-05-17T05:37:23.090Z,6.03
2019-05-17T05:39:52.399Z,5.58
2019-05-17T05:42:22.142Z,5.92
2019-05-17T05:44:52.218Z,5.58
2019-05-17T05:47:22.179Z,6.10
2019-05-17T05:49:52.020Z,5.80
2019-05-17T05:52:21.874Z,5.97
2019-05-17T05:54:52.063Z,8.20
2019-05-17T05:57:21.926Z,8.78
2019-05-17T05:59:51.792Z,8.13
2019-05-17T06:02:21.762Z,6.42
2019-05-17T06:04:51.825Z,6.15
2019-05-17T06:07:21.644Z,7.20
2019-05-17T06:09:51.799Z,6.72
2019-05-17T06:12:24.842Z,6.60
2019-05-17T06:14:52.390Z,6.75
2019-05-17T06:17:21.695Z,7.15
2019-05-17T06:19:51.685Z,6.65
2019-05-17T06:22:22.374Z,6.33
2019-05-17T06:24:52.057Z,6.65
2019-05-17T06:27:21.509Z,6.65
2019-05-17T06:29:51.491Z,7.05
2019-05-17T06:32:22.829Z,6.47
2019-05-17T06:34:51.525Z,6.45
2019-05-17T06:37:22.362Z,6.12
2019-05-17T06:39:52.670Z,6.33
2019-05-17T06:42:25.815Z,6.75
2019-05-17T06:44:52.345Z,8.43
2019-05-17T06:47:22.531Z,8.08
2019-05-17T06:49:53.429Z,7.40
2019-05-17T06:52:22.563Z,8.23
2019-05-17T06:54:52.480Z,9.25
2019-05-17T06:57:23.331Z,7.70
2019-05-17T06:59:51.879Z,7.50
2019-05-17T07:02:20.708Z,6.80
2019-05-17T07:04:50.846Z,7.17
2019-05-17T07:07:26.972Z,6.83
2019-05-17T07:10:00.605Z,6.72
2019-05-17T07:12:30.664Z,7.08
2019-05-17T07:15:01.513Z,6.65
2019-05-17T07:17:30.525Z,6.70
2019-05-17T07:19:59.808Z,6.90
2019-05-17T07:22:29.662Z,11.08
2019-05-17T07:24:59.787Z,6.97
2019-05-17T07:27:41.111Z,8.23
2019-05-17T07:29:59.295Z,7.90
2019-05-17T07:32:29.717Z,7.60
2019-05-17T07:35:00.106Z,7.60
2019-05-17T07:37:30.293Z,6.95
2019-05-17T07:40:04.842Z,13.65
2019-05-17T07:42:29.883Z,11.85
2019-05-17T07:45:00.583Z,8.60
2019-05-17T07:47:29.498Z,8.00
2019-05-17T07:50:00.949Z,9.23
2019-05-17T07:52:29.957Z,8.55
2019-05-17T07:55:02.452Z,8.00
2019-05-17T07:57:29.970Z,8.55
2019-05-17T07:59:59.997Z,8.55
2019-05-17T08:02:30.671Z,9.30
2019-05-17T08:05:00.461Z,7.83
2019-05-17T08:07:30.212Z,8.50
2019-05-17T08:10:00.130Z,7.92
2019-05-17T08:12:30.565Z,7.83
2019-05-17T08:14:59.952Z,8.10
2019-05-17T08:17:30.388Z,7.42
2019-05-17T08:20:00.600Z,8.35
2019-05-17T08:22:29.722Z,7.58
2019-05-17T08:25:00.124Z,8.85
2019-05-17T08:57:00.679Z,7.58
2019-05-17T08:59:29.741Z,6.83
2019-05-17T09:02:00.144Z,7.05
2019-05-17T09:04:29.751Z,7.30
2019-05-17T09:07:00.059Z,6.85
2019-05-17T09:09:31.454Z,7.12
2019-05-17T09:11:59.675Z,6.87
2019-05-17T09:14:29.441Z,7.78
2019-05-17T09:17:00.473Z,7.37
2019-05-17T09:19:29.984Z,7.42
2019-05-17T09:21:59.819Z,7.25
2019-05-17T09:24:30.049Z,6.90
2019-05-17T09:26:59.865Z,7.67
2019-05-17T09:29:29.691Z,6.92
2019-05-17T09:31:59.962Z,7.60
2019-05-17T09:34:29.972Z,6.90
2019-05-17T09:37:00.268Z,6.97
2019-05-17T09:39:29.515Z,7.28
2019-05-17T09:41:59.528Z,6.95
2019-05-17T09:44:29.883Z,7.83
2019-05-17T09:46:59.479Z,7.40
2019-05-17T09:49:29.941Z,6.78
2019-05-17T09:52:00.165Z,7.97
2019-05-17T09:54:41.411Z,8.35
2019-05-17T09:57:00.474Z,7.17
2019-05-17T09:59:29.815Z,6.80
2019-05-17T10:02:00.129Z,7.35
2019-05-17T10:04:30.449Z,6.92
2019-05-17T10:06:59.510Z,6.55
2019-05-17T10:09:28.391Z,7.08
2019-05-17T10:11:57.283Z,7.12
2019-05-17T10:14:29.065Z,7.28
2019-05-17T10:16:56.566Z,6.85
2019-05-17T10:19:25.392Z,7.15
2019-05-17T10:21:54.283Z,6.47
2019-05-17T10:24:33.848Z,6.62
2019-05-17T10:26:53.610Z,6.05
2019-05-17T10:29:22.428Z,6.20
2019-05-17T10:31:51.517Z,7.12
2019-05-17T10:34:20.403Z,7.22
2019-05-17T10:36:50.637Z,6.42
2019-05-17T10:39:19.700Z,6.58
2019-05-17T10:41:50.074Z,6.28
2019-05-17T10:44:19.870Z,6.95
2019-05-17T10:46:48.799Z,6.42
2019-05-17T10:49:20.090Z,6.35
2019-05-17T10:51:49.395Z,7.10
2019-05-17T10:54:20.683Z,6.37
2019-05-17T10:56:50.207Z,6.33
2019-05-17T10:59:20.334Z,6.72
2019-05-17T11:01:50.164Z,6.62
2019-05-17T11:04:19.759Z,6.72
2019-05-17T11:06:50.073Z,6.67
2019-05-17T11:09:20.503Z,7.22
2019-05-17T11:11:49.634Z,6.28
2019-05-17T11:14:18.448Z,6.40
2019-05-17T11:16:47.271Z,6.17
2019-05-17T11:19:16.099Z,6.60
2019-05-17T11:21:44.923Z,6.87
2019-05-17T11:24:19.918Z,7.12
2019-05-17T11:26:48.835Z,6.62
2019-05-17T11:29:17.767Z,6.50
2019-05-17T11:31:46.584Z,6.28
2019-05-17T11:34:15.421Z,6.67
2019-05-17T11:36:44.240Z,6.10
2019-05-17T11:39:13.082Z,6.75
2019-05-17T11:41:41.903Z,6.15
2019-05-17T11:44:10.748Z,6.87
2019-05-17T11:46:39.589Z,6.10
2019-05-17T11:49:08.410Z,5.65
2019-05-17T11:51:37.239Z,6.45
2019-05-17T11:54:06.111Z,6.30
2019-05-17T11:56:34.935Z,6.58
2019-05-17T11:59:03.804Z,6.70
2019-05-17T12:01:32.588Z,5.72
2019-05-17T12:04:01.503Z,6.42
2019-05-17T12:06:30.364Z,6.20
2019-05-17T12:08:59.200Z,6.42
2019-05-17T12:11:28.042Z,5.92
2019-05-17T12:13:56.937Z,6.35
2019-05-17T12:16:25.770Z,6.70
2019-05-17T12:18:54.624Z,6.00
2019-05-17T12:21:24.414Z,6.25
2019-05-17T12:23:53.226Z,6.00
2019-05-17T12:26:22.049Z,6.00
2019-05-17T12:28:50.867Z,6.42
2019-05-17T12:31:19.795Z,6.80
2019-05-17T12:33:48.686Z,6.80
2019-05-17T12:36:17.506Z,6.50
2019-05-17T12:38:46.499Z,6.37
2019-05-17T12:41:15.300Z,6.28
2019-05-17T12:43:44.131Z,6.10
2019-05-17T12:46:12.938Z,6.10
2019-05-17T12:48:41.759Z,5.72
2019-05-17T12:51:10.583Z,6.40
2019-05-17T12:53:39.411Z,6.20
2019-05-17T12:56:08.247Z,6.72
2019-05-17T12:58:37.125Z,6.72
2019-05-17T13:01:05.997Z,6.30
2019-05-17T13:03:34.809Z,5.92
2019-05-17T13:06:03.653Z,6.33
2019-05-17T13:08:32.525Z,6.05
2019-05-17T13:11:01.355Z,6.45
2019-05-17T13:13:30.160Z,6.17
2019-05-17T13:15:58.995Z,5.78
2019-05-17T13:18:27.798Z,6.10
2019-05-17T13:20:56.627Z,6.42
2019-05-17T13:23:25.449Z,6.33
2019-05-17T13:25:54.277Z,6.17
2019-05-17T13:28:23.109Z,6.25
2019-05-17T13:30:52.133Z,6.78
2019-05-17T13:33:20.952Z,6.35
2019-05-17T13:35:49.772Z,6.05
2019-05-17T13:38:18.590Z,5.90
2019-05-17T13:40:47.531Z,5.72
2019-05-17T13:43:16.446Z,5.67
2019-05-17T13:45:45.759Z,5.72
2019-05-17T13:48:14.572Z,5.90
2019-05-17T13:50:43.387Z,5.80
2019-05-17T13:53:12.218Z,5.90
2019-05-17T13:55:41.049Z,5.97
2019-05-17T13:58:09.868Z,5.95
2019-05-17T14:00:38.712Z,5.83
2019-05-17T14:03:07.526Z,5.92
2019-05-17T14:05:36.560Z,5.80
2019-05-17T14:08:05.487Z,6.15
2019-05-17T14:10:35.396Z,6.40
2019-05-17T14:13:04.364Z,5.72
2019-05-17T14:15:33.199Z,5.60
2019-05-17T14:18:01.987Z,5.22
2019-05-17T14:20:33.317Z,5.80
2019-05-17T14:23:02.131Z,5.78
2019-05-17T14:25:31.067Z,5.72
2019-05-17T14:27:59.993Z,5.53
2019-05-17T14:30:28.814Z,6.28
2019-05-17T14:32:57.640Z,6.03
2019-05-17T14:35:26.465Z,5.75
2019-05-17T14:37:55.370Z,6.22
2019-05-17T14:40:24.419Z,6.17
2019-05-17T14:42:53.257Z,6.00
2019-05-17T14:45:22.082Z,5.62
2019-05-17T14:47:50.903Z,5.35
2019-05-17T14:50:19.726Z,6.30
2019-05-17T14:52:48.584Z,6.05
2019-05-17T14:55:17.396Z,5.70
2019-05-17T14:57:46.280Z,5.50
2019-05-17T15:00:15.546Z,5.12
2019-05-17T15:02:44.371Z,5.47
2019-05-17T15:05:13.508Z,4.75
2019-05-17T15:07:42.528Z,5.80
2019-05-17T15:10:11.605Z,5.67
2019-05-17T15:12:40.416Z,8.95
2019-05-17T15:15:09.637Z,7.35
2019-05-17T15:17:38.486Z,6.08
2019-05-17T15:20:08.090Z,5.40
2019-05-17T15:22:36.920Z,5.50
2019-05-17T15:25:06.237Z,5.20
2019-05-17T15:27:35.108Z,5.40
2019-05-17T15:30:06.087Z,5.05
2019-05-17T15:32:34.866Z,5.10
2019-05-17T15:35:04.391Z,5.20
2019-05-17T15:37:33.219Z,5.47
2019-05-17T15:40:02.287Z,4.80
2019-05-17T15:42:43.278Z,6.25
2019-05-17T15:45:01.746Z,5.20
2019-05-17T15:47:31.974Z,5.05
2019-05-17T15:50:00.827Z,4.87
2019-05-17T15:52:29.675Z,5.33
2019-05-17T15:54:58.548Z,5.05
2019-05-17T15:57:27.372Z,5.30
2019-05-17T15:59:56.227Z,4.87
2019-05-17T16:02:26.133Z,4.95
2019-05-17T16:04:54.991Z,5.30
2019-05-17T16:07:23.845Z,4.70
2019-05-17T16:09:52.668Z,4.95
2019-05-17T16:12:21.485Z,4.80
2019-05-17T16:14:50.323Z,5.47
2019-05-17T16:17:19.149Z,5.17
2019-05-17T16:19:47.972Z,4.85
2019-05-17T16:22:16.786Z,4.37
2019-05-17T16:24:45.641Z,4.22
2019-05-17T16:27:14.461Z,4.47
2019-05-17T16:29:43.333Z,4.45
2019-05-17T16:32:12.152Z,4.15
2019-05-17T16:34:40.997Z,4.37
2019-05-17T16:37:09.806Z,3.90
2019-05-17T16:39:38.627Z,4.22
2019-05-17T16:42:09.490Z,4.25
2019-05-17T16:44:38.057Z,3.65
2019-05-17T16:47:06.903Z,3.87
2019-05-17T16:49:35.825Z,4.30
2019-05-17T16:52:04.742Z,3.83
2019-05-17T16:54:33.563Z,3.72
2019-05-17T16:57:02.475Z,3.70
2019-05-17T16:59:31.296Z,3.98
2019-05-17T17:02:00.284Z,4.58
2019-05-17T17:04:29.279Z,3.55
2019-05-17T17:06:58.140Z,3.83
2019-05-17T17:09:26.961Z,3.83
2019-05-17T17:11:55.884Z,3.83
2019-05-17T17:14:24.815Z,3.92
2019-05-17T17:16:53.713Z,3.87
2019-05-17T17:19:22.549Z,4.10
2019-05-17T17:21:51.388Z,3.77
2019-05-17T17:24:20.294Z,4.15
2019-05-17T17:26:49.096Z,4.28
2019-05-17T17:29:18.327Z,4.22
2019-05-17T17:31:47.151Z,4.08
2019-05-17T17:34:16.028Z,4.42
2019-05-17T17:36:44.944Z,4.42
2019-05-17T17:39:13.864Z,4.00
2019-05-17T17:41:43.812Z,3.90
2019-05-17T17:44:12.617Z,4.20
2019-05-17T17:46:41.440Z,4.00
2019-05-17T17:49:10.428Z,3.92
2019-05-17T17:51:39.343Z,3.98
2019-05-17T17:54:08.151Z,3.72
2019-05-17T17:56:36.974Z,4.05
2019-05-17T17:59:05.798Z,3.90
2019-05-17T18:01:34.679Z,4.42
2019-05-17T18:04:03.605Z,4.08
2019-05-17T18:06:32.468Z,4.30
2019-05-17T18:09:01.392Z,4.12
2019-05-17T18:11:30.187Z,5.00
2019-05-17T18:14:12.498Z,5.40
2019-05-17T18:16:29.509Z,4.45
2019-05-17T18:18:58.300Z,5.12
2019-05-17T18:21:27.142Z,4.95
2019-05-17T18:23:55.955Z,5.17
2019-05-17T18:26:24.778Z,4.83
2019-05-17T18:28:53.605Z,4.90
2019-05-17T18:31:22.432Z,4.97
2019-05-17T18:33:51.259Z,5.87
2019-05-17T18:36:20.180Z,5.00
2019-05-17T18:38:52.032Z,5.42
2019-05-17T18:41:20.915Z,4.47
2019-05-17T18:43:49.731Z,5.00
2019-05-17T18:46:19.675Z,4.87
2019-05-17T18:48:48.671Z,5.92
2019-05-17T18:51:17.467Z,4.87
2019-05-17T18:53:46.588Z,4.85
2019-05-17T18:56:15.437Z,5.20
2019-05-17T18:58:44.278Z,5.03
2019-05-17T19:01:13.099Z,5.50
2019-05-17T19:03:41.939Z,5.22
2019-05-17T19:06:10.759Z,4.97
2019-05-17T19:08:39.599Z,4.80
2019-05-17T19:11:08.424Z,5.15
2019-05-17T19:13:37.255Z,4.55
2019-05-17T19:16:06.172Z,4.80
2019-05-17T19:18:34.997Z,4.92
2019-05-17T19:21:03.834Z,5.20
2019-05-17T19:23:32.639Z,4.78
2019-05-17T19:26:01.459Z,4.83
2019-05-17T19:28:30.283Z,5.22
2019-05-17T19:30:59.113Z,5.12
2019-05-17T19:33:27.939Z,4.47
2019-05-17T19:35:56.767Z,4.95
2019-05-17T19:38:25.622Z,4.47
2019-05-17T19:40:54.437Z,4.50
2019-05-17T19:43:23.251Z,4.83
2019-05-17T19:45:52.075Z,4.62
2019-05-17T19:48:20.892Z,4.05
2019-05-17T19:50:49.716Z,4.75
2019-05-17T19:53:18.547Z,4.60
2019-05-17T19:55:47.384Z,4.90
2019-05-17T19:58:16.313Z,4.62
2019-05-17T20:00:45.235Z,4.65
2019-05-17T20:03:14.046Z,4.45
2019-05-17T20:05:44.634Z,4.80
2019-05-17T20:08:13.484Z,4.60
2019-05-17T20:10:42.579Z,4.83
2019-05-17T20:13:11.399Z,4.42
2019-05-17T20:15:40.227Z,4.45
2019-05-17T20:18:09.366Z,4.60
2019-05-17T20:20:38.248Z,3.85
2019-05-17T20:23:07.066Z,4.08
2019-05-17T20:25:35.889Z,4.45
2019-05-17T20:28:04.750Z,4.08
2019-05-17T20:30:33.615Z,4.60
2019-05-17T20:33:02.502Z,4.60
2019-05-17T20:35:31.331Z,4.62
2019-05-17T20:38:00.141Z,4.65
2019-05-17T20:40:29.003Z,4.10
2019-05-17T20:42:57.791Z,4.30
2019-05-17T20:45:33.244Z,3.95
2019-05-17T20:47:57.188Z,4.40
2019-05-17T20:50:26.079Z,4.42
2019-05-17T20:52:54.903Z,4.17
2019-05-17T20:55:23.784Z,4.03
2019-05-17T20:57:52.647Z,4.05
2019-05-17T21:00:21.506Z,4.03
2019-05-17T21:02:50.460Z,4.65
2019-05-17T21:05:19.323Z,3.98
2019-05-17T21:07:48.223Z,3.80
2019-05-17T21:10:17.326Z,3.67
2019-05-17T21:12:46.235Z,3.95
2019-05-17T21:15:16.048Z,3.90
2019-05-17T21:17:44.835Z,3.90
2019-05-17T21:20:14.178Z,3.65
2019-05-17T21:22:43.098Z,4.00
2019-05-17T21:25:12.228Z,4.10
2019-05-17T21:27:41.040Z,3.85
2019-05-17T21:30:10.199Z,3.95
2019-05-17T21:32:39.015Z,4.05
2019-05-17T21:35:08.140Z,3.65
2019-05-17T21:37:37.061Z,3.40
2019-05-17T21:40:08.943Z,3.52
2019-05-17T21:42:37.781Z,3.58
2019-05-17T21:45:07.505Z,4.03
2019-05-17T21:47:36.319Z,3.67
2019-05-17T21:50:06.092Z,4.10
2019-05-17T21:52:34.910Z,3.50
2019-05-17T21:55:03.834Z,3.65
2019-05-17T21:57:32.667Z,3.67
2019-05-17T22:00:01.504Z,4.17
2019-05-17T22:02:30.356Z,4.00
2019-05-17T22:04:59.179Z,3.95
2019-05-17T22:07:28.003Z,3.37
2019-05-17T22:09:56.821Z,4.10
2019-05-17T22:12:25.650Z,3.70
2019-05-17T22:14:54.510Z,4.10
2019-05-17T22:17:23.275Z,3.12
2019-05-17T22:19:52.093Z,3.55
2019-05-17T22:22:20.918Z,3.70
2019-05-17T22:24:49.729Z,3.55
2019-05-17T22:27:18.559Z,3.47
2019-05-17T22:29:47.375Z,3.45
2019-05-17T22:32:16.202Z,3.33
2019-05-17T22:34:45.060Z,3.35
2019-05-17T22:37:13.897Z,3.80
2019-05-17T22:39:42.719Z,3.90
2019-05-17T22:42:11.663Z,3.25
2019-05-17T22:44:40.526Z,3.12
2019-05-17T22:47:09.442Z,3.30
2019-05-17T22:49:38.238Z,3.58
2019-05-17T22:52:07.071Z,3.10
2019-05-17T22:54:35.877Z,3.05
2019-05-17T22:57:04.770Z,3.22
2019-05-17T22:59:33.630Z,3.62
2019-05-17T23:02:02.460Z,3.50
2019-05-17T23:04:31.278Z,3.67
2019-05-17T23:07:00.091Z,3.10
2019-05-17T23:09:28.911Z,3.72
2019-05-17T23:11:57.743Z,3.00
2019-05-17T23:14:26.563Z,3.27
2019-05-17T23:16:55.371Z,3.10
2019-05-17T23:19:24.219Z,3.42
2019-05-17T23:21:53.032Z,3.35
2019-05-17T23:24:21.867Z,3.25
2019-05-17T23:26:50.695Z,3.20
2019-05-17T23:29:19.511Z,3.33
2019-05-17T23:31:48.362Z,3.05
2019-05-17T23:34:17.157Z,3.25
2019-05-17T23:36:45.958Z,3.20
2019-05-17T23:39:14.770Z,2.60
2019-05-17T23:41:43.595Z,3.40
2019-05-17T23:44:12.419Z,2.95
2019-05-17T23:46:41.252Z,3.08
2019-05-17T23:49:10.058Z,3.58
2019-05-17T23:51:38.879Z,3.12
2019-05-17T23:54:07.694Z,3.15
2019-05-17T23:56:36.511Z,3.25
2019-05-17T23:59:06.238Z,3.10
